Time;durP1;ratioP1;P1;durP2;ratioP2;P2;SDS_P1;SDS_P2;PMS_P1;PMS_P2;Temp;Humidity;BMP_temperature;BMP_pressure;BME280_temperature;BME280_humidity;BME280_pressure;Samples;Min_cycle;Max_cycle;Signal;HPM_P1;HPM_P2
2022/10/11 00:02:34;;;;;;;11.40;10.43;;;;;;;21.00;45.15;95722.47;6152746;28;104322;-64
2022/10/11 00:05:38;;;;;;;11.93;10.93;;;;;;;21.00;44.80;95721.69;6156112;28;103178;-65
2022/10/11 00:08:41;;;;;;;11.27;10.37;;;;;;;21.00;45.15;95722.47;6157679;28;102791;-64
2022/10/11 00:11:44;;;;;;;11.13;10.23;;;;;;;21.04;44.73;95722.72;6146318;28;103233;-64
2022/10/11 00:14:47;;;;;;;11.20;10.13;;;;;;;21.04;44.97;95734.16;6159961;28;103163;-64
2022/10/11 00:17:51;;;;;;;11.43;10.60;;;;;;;21.05;44.89;95730.47;6159946;28;104284;-63
2022/10/11 00:21:02;;;;;;;10.47;9.67;;;;;;;21.05;44.66;95719.03;6161029;28;103658;-64
2022/10/11 00:24:06;;;;;;;11.77;10.57;;;;;;;21.03;45.31;95721.94;6151497;28;106637;-64
2022/10/11 00:27:10;;;;;;;11.73;10.73;;;;;;;21.05;44.63;95722.47;6161741;28;103672;-64
2022/10/11 00:30:13;;;;;;;10.90;10.10;;;;;;;21.04;44.47;95714.75;6160561;28;103273;-64
2022/10/11 00:33:18;;;;;;;11.97;10.97;;;;;;;21.04;44.97;95718.19;6152632;28;104797;-67
2022/10/11 00:36:21;;;;;;;13.43;12.23;;;;;;;21.03;44.98;95721.16;6160386;28;103043;-64
2022/10/11 00:39:24;;;;;;;13.07;11.97;;;;;;;21.02;44.85;95716.91;6161116;28;103577;-67
2022/10/11 00:42:28;;;;;;;12.37;11.37;;;;;;;20.99;45.10;95715.56;6161038;28;103137;-66
2022/10/11 00:46:00;;;;;;;13.60;12.50;;;;;;;20.97;45.15;95717.72;6151367;28;103092;-67
2022/10/11 00:49:12;;;;;;;13.57;12.37;;;;;;;20.98;45.18;95710.53;6157824;28;103835;-64
2022/10/11 00:52:20;;;;;;;14.43;12.10;;;;;;;20.99;44.90;95704.94;6160601;28;103172;-64
2022/10/11 00:55:30;;;;;;;12.53;11.53;;;;;;;20.99;44.97;95696.16;6156044;28;104234;-64
2022/10/11 00:58:35;;;;;;;13.53;12.43;;;;;;;21.02;44.84;95703.59;6154100;28;103426;-64
2022/10/11 01:01:38;;;;;;;12.50;11.50;;;;;;;20.98;45.33;95706.00;6161431;28;103804;-65
2022/10/11 01:04:43;;;;;;;14.80;13.60;;;;;;;20.99;45.29;95699.59;6160475;28;103281;-63
2022/10/11 01:07:47;;;;;;;12.63;11.73;;;;;;;20.98;45.17;95695.38;6150189;28;104775;-64
2022/10/11 01:10:51;;;;;;;12.70;11.70;;;;;;;21.00;45.11;95706.50;6160574;28;102701;-64
2022/10/11 01:14:14;;;;;;;14.13;12.93;;;;;;;20.99;45.39;95696.16;6160570;28;103172;-64
2022/10/11 01:17:25;;;;;;;13.90;12.90;;;;;;;20.98;45.05;95692.69;6160194;28;103564;-74
2022/10/11 01:20:40;;;;;;;14.83;13.57;;;;;;;20.98;44.98;95698.03;6150574;28;103065;-73
2022/10/11 01:24:15;;;;;;;15.43;14.10;;;;;;;20.99;45.16;95690.84;6160880;28;102800;-73
2022/10/11 01:27:41;;;;;;;15.73;14.27;;;;;;;20.98;45.02;95694.56;6159931;28;103809;-70
2022/10/11 01:30:46;;;;;;;16.07;14.70;;;;;;;20.99;44.89;95688.97;6149556;28;103299;-73
2022/10/11 01:33:54;;;;;;;15.30;14.00;;;;;;;20.97;45.38;95683.13;6160361;28;102999;-73
2022/10/11 01:37:04;;;;;;;15.27;13.97;;;;;;;20.97;45.31;95683.13;6158931;28;102811;-73
2022/10/11 01:40:11;;;;;;;15.27;14.07;;;;;;;20.99;45.54;95682.84;6161018;28;102763;-73
2022/10/11 01:43:16;;;;;;;15.70;14.50;;;;;;;20.99;45.07;95678.31;6148750;28;103368;-72
2022/10/11 01:46:21;;;;;;;16.57;15.20;;;;;;;20.96;45.17;95678.91;6161031;28;102857;-71
2022/10/11 01:49:24;;;;;;;15.20;14.00;;;;;;;20.96;45.28;95680.75;6159458;28;103462;-70
2022/10/11 01:52:30;;;;;;;16.03;14.73;;;;;;;20.92;45.12;95688.53;6153785;28;102922;-72
2022/10/11 01:55:42;;;;;;;14.50;13.40;;;;;;;20.92;44.82;95681.34;6154066;28;103569;-71
2022/10/11 01:59:02;;;;;;;15.80;14.60;;;;;;;20.93;44.99;95682.91;6158327;28;103145;-74
2022/10/11 02:02:18;;;;;;;15.97;14.67;;;;;;;20.96;45.49;95680.75;6158929;28;103448;-69
2022/10/11 02:05:30;;;;;;;16.00;14.80;;;;;;;20.93;44.81;95685.56;6128290;28;103361;-74
2022/10/11 02:08:38;;;;;;;15.60;14.40;;;;;;;20.92;45.24;95686.66;6160135;28;103024;-74
2022/10/11 02:11:42;;;;;;;15.80;14.33;;;;;;;20.93;45.28;95696.22;6159438;28;103170;-72
2022/10/11 02:14:49;;;;;;;15.83;14.53;;;;;;;20.94;45.13;95691.69;6159934;28;103129;-73
2022/10/11 02:17:57;;;;;;;15.73;14.53;;;;;;;20.91;45.50;95687.72;6147987;28;103815;-71
2022/10/11 02:21:02;;;;;;;15.17;13.97;;;;;;;;;;6158819;28;103766;-74
2022/10/11 02:24:10;;;;;;;14.73;13.53;;;;;;;20.92;45.31;95678.66;6159762;28;103150;-74
2022/10/11 02:27:16;;;;;;;15.63;14.23;;;;;;;20.92;45.18;95672.56;6152616;28;103079;-72
2022/10/11 02:30:19;;;;;;;17.00;15.50;;;;;;;20.96;45.28;95678.09;6157862;28;102992;-72
2022/10/11 02:33:28;;;;;;;14.87;13.57;;;;;;;20.91;44.99;95677.09;6159010;28;103002;-73
2022/10/11 02:36:37;;;;;;;16.90;15.50;;;;;;;20.91;45.17;95677.09;6158567;28;103124;-74
2022/10/11 02:39:44;;;;;;;16.00;14.70;;;;;;;20.91;45.38;95676.28;6148322;28;103421;-69
2022/10/11 02:42:52;;;;;;;15.73;14.50;;;;;;;20.89;45.22;95673.13;6152696;28;103134;-71
2022/10/11 02:45:59;;;;;;;16.30;14.90;;;;;;;20.92;45.19;95673.34;6159215;28;103070;-70
2022/10/11 02:49:04;;;;;;;15.43;14.23;;;;;;;20.90;45.31;95670.19;6158006;28;103515;-74
2022/10/11 02:52:07;;;;;;;14.43;13.33;;;;;;;20.88;45.06;95669.69;6148059;28;104086;-73
2022/10/11 02:55:11;;;;;;;14.87;13.77;;;;;;;20.92;44.90;95664.56;6159007;28;103075;-74
2022/10/11 02:58:14;;;;;;;15.77;14.30;;;;;;;20.93;45.10;95660.84;6158540;28;104331;-73
2022/10/11 03:01:17;;;;;;;15.13;13.73;;;;;;;20.90;45.05;95669.38;6153664;28;103281;-74
2022/10/11 03:04:22;;;;;;;16.27;14.97;;;;;;;20.92;45.06;95668.03;6153840;28;103243;-71
2022/10/11 03:07:25;;;;;;;16.40;15.00;;;;;;;20.92;45.19;95657.38;6150344;28;102762;-68
2022/10/11 03:10:28;;;;;;;14.77;13.57;;;;;;;20.97;45.08;95661.84;6158885;28;106173;-72
2022/10/11 03:13:31;;;;;;;14.53;13.33;;;;;;;21.02;44.94;95661.03;6148713;28;103238;-70
2022/10/11 03:16:34;;;;;;;15.27;14.07;;;;;;;21.02;45.04;95650.38;6159252;28;103511;-74
2022/10/11 03:19:38;;;;;;;14.83;13.43;;;;;;;21.04;44.75;95654.34;6159639;28;103270;-72
2022/10/11 03:22:41;;;;;;;14.37;13.17;;;;;;;21.07;44.61;95653.00;6159127;28;102896;-72
2022/10/11 03:25:45;;;;;;;15.03;13.87;;;;;;;21.08;45.58;95652.72;6146542;28;104946;-74
2022/10/11 03:28:48;;;;;;;15.23;13.73;;;;;;;21.09;45.50;95645.53;6157676;28;103030;-73
2022/10/11 03:31:51;;;;;;;15.37;14.07;;;;;;;21.10;45.83;95647.13;6159304;28;102899;-67
2022/10/11 03:34:56;;;;;;;16.50;15.00;;;;;;;21.11;45.75;95643.38;6160501;28;103179;-72
2022/10/11 03:37:59;;;;;;;15.40;14.03;;;;;;;21.10;46.08;95649.78;6143372;28;105158;-70
2022/10/11 03:41:02;;;;;;;17.57;15.97;;;;;;;21.13;46.76;95643.88;6149888;28;103269;-71
2022/10/11 03:44:05;;;;;;;19.93;18.13;;;;;;;21.03;45.67;95647.44;6157935;28;105765;-72
2022/10/11 03:47:09;;;;;;;20.57;18.67;;;;;;;20.90;45.88;95638.25;6153074;28;103127;-72
2022/10/11 03:50:13;;;;;;;19.00;17.40;;;;;;;20.86;45.79;95645.22;6156161;28;103592;-73
2022/10/11 03:53:17;;;;;;;21.90;18.00;;;;;;;20.83;46.01;95643.09;6162782;28;103198;-71
2022/10/11 03:56:20;;;;;;;20.77;18.87;;;;;;;20.79;46.10;95635.97;6162246;28;103071;-70
2022/10/11 03:59:23;;;;;;;20.53;18.53;;;;;;;20.78;46.08;95637.84;6152196;28;103230;-72
2022/10/11 04:02:26;;;;;;;19.87;17.83;;;;;;;20.80;46.19;95637.56;6162876;28;103092;-71
2022/10/11 04:05:30;;;;;;;22.57;20.47;;;;;;;20.80;45.78;95632.25;6161657;28;103143;-72
2022/10/11 04:08:33;;;;;;;29.23;20.63;;;;;;;20.73;46.84;95640.56;6163431;28;102876;-73
2022/10/11 04:11:36;;;;;;;20.90;19.00;;;;;;;20.57;47.73;95636.47;6150911;28;102767;-71
2022/10/11 04:14:40;;;;;;;21.67;19.67;;;;;;;20.42;46.82;95644.59;6162667;28;102986;-73
2022/10/11 04:17:43;;;;;;;19.80;17.90;;;;;;;20.49;47.14;95640.53;6160206;28;103574;-73
2022/10/11 04:20:47;;;;;;;20.27;18.23;;;;;;;20.79;47.15;95633.31;6160433;28;103099;-73
2022/10/11 04:23:50;;;;;;;23.80;19.60;;;;;;;20.83;46.54;95640.44;6127251;28;106070;-74
2022/10/11 04:26:54;;;;;;;21.00;18.90;;;;;;;20.87;46.23;95641.50;6138157;28;103450;-74
2022/10/11 04:29:57;;;;;;;19.70;17.70;;;;;;;20.90;46.13;95637.47;6137855;28;103309;-74
2022/10/11 04:33:00;;;;;;;20.47;18.37;;;;;;;20.92;46.11;95641.44;6130311;28;104947;-69
2022/10/11 04:36:05;;;;;;;20.13;18.10;;;;;;;20.92;45.86;95636.09;6134468;28;102795;-74
2022/10/11 04:39:09;;;;;;;20.07;18.17;;;;;;;20.92;46.02;95640.63;6136044;28;106110;-73
2022/10/11 04:42:12;;;;;;;17.73;16.13;;;;;;;20.92;46.18;95638.75;6134773;28;103337;-71
2022/10/11 04:45:15;;;;;;;19.57;17.70;;;;;;;20.92;46.23;95641.44;6124831;28;103319;-74
2022/10/11 04:48:18;;;;;;;18.20;16.50;;;;;;;20.92;45.98;95636.09;6134802;28;103205;-73
2022/10/11 04:51:23;;;;;;;18.47;16.77;;;;;;;20.90;45.96;95637.47;6137562;28;103280;-75
2022/10/11 04:54:27;;;;;;;18.60;16.90;;;;;;;20.91;46.05;95633.72;6137311;28;103230;-73
2022/10/11 04:57:30;;;;;;;20.40;18.37;;;;;;;20.91;46.10;95634.53;6126783;28;103394;-72
2022/10/11 05:00:33;;;;;;;18.50;16.80;;;;;;;20.90;46.15;95634.81;6137635;28;103016;-75
2022/10/11 05:03:37;;;;;;;19.07;17.37;;;;;;;20.91;45.96;95641.72;6136501;28;103319;-74
2022/10/11 05:06:41;;;;;;;17.63;16.13;;;;;;;20.91;46.19;95645.16;6133202;28;103590;-75
2022/10/11 05:09:44;;;;;;;19.23;17.40;;;;;;;20.91;45.81;95642.50;6132120;28;102801;-74
2022/10/11 05:12:48;;;;;;;18.60;16.77;;;;;;;20.90;46.31;95637.47;6137519;28;103141;-74
2022/10/11 05:15:51;;;;;;;18.83;17.13;;;;;;;20.91;46.22;95636.41;6137205;28;103176;-74
2022/10/11 05:18:54;;;;;;;18.13;16.60;;;;;;;20.91;46.32;95639.84;6125899;28;103456;-74
2022/10/11 05:21:58;;;;;;;18.20;16.50;;;;;;;20.92;45.84;95640.63;6137128;28;103106;-75
2022/10/11 05:25:01;;;;;;;18.70;17.10;;;;;;;20.97;46.36;95650.41;6136755;28;103141;-75
2022/10/11 05:28:05;;;;;;;19.30;17.50;;;;;;;20.96;46.20;95651.50;6137311;28;103188;-74
2022/10/11 05:31:08;;;;;;;18.73;17.00;;;;;;;20.96;45.71;95654.16;6127040;28;103402;-75
2022/10/11 05:34:11;;;;;;;17.97;16.37;;;;;;;20.96;45.87;95654.16;6136634;28;103069;-74
2022/10/11 05:37:15;;;;;;;19.20;17.37;;;;;;;20.97;45.81;95661.06;6136647;28;103118;-74
2022/10/11 05:40:18;;;;;;;18.80;17.00;;;;;;;20.97;46.16;95658.41;6133274;28;103406;-73
2022/10/11 05:43:21;;;;;;;18.10;16.40;;;;;;;20.99;45.87;95664.22;6130053;28;103460;-74
2022/10/11 05:46:24;;;;;;;17.97;16.47;;;;;;;20.98;45.80;95663.44;6136150;28;103252;-74
2022/10/11 05:49:28;;;;;;;18.53;16.73;;;;;;;21.00;46.26;95657.81;6136659;28;103330;-74
2022/10/11 05:52:32;;;;;;;18.47;16.77;;;;;;;20.98;45.86;95660.78;6127452;28;103756;-75
2022/10/11 05:55:37;;;;;;;18.33;16.67;;;;;;;20.98;45.90;95666.09;6135783;28;103356;-74
2022/10/11 05:58:40;;;;;;;18.97;17.27;;;;;;;20.99;46.30;95677.53;6136668;28;103088;-75
2022/10/11 06:01:43;;;;;;;17.50;15.97;;;;;;;20.98;46.06;95662.66;6136242;28;106371;-73
2022/10/11 06:04:46;;;;;;;18.63;17.03;;;;;;;20.98;46.26;95663.44;6126855;28;103241;-74
2022/10/11 06:07:51;;;;;;;17.97;16.47;;;;;;;20.99;46.17;95661.56;6136614;28;105330;-74
2022/10/11 06:10:54;;;;;;;17.60;16.13;;;;;;;20.98;45.94;95665.31;6135083;28;103344;-74
2022/10/11 06:13:58;;;;;;;18.07;16.43;;;;;;;21.00;46.20;95647.19;6135962;28;103053;-75
2022/10/11 06:17:01;;;;;;;19.20;17.40;;;;;;;20.97;46.33;95653.88;6124815;28;103186;-75
2022/10/11 06:20:05;;;;;;;16.97;15.53;;;;;;;20.97;46.07;95639.78;6136495;28;103249;-74
2022/10/11 06:23:09;;;;;;;19.33;17.57;;;;;;;20.94;46.37;95633.16;6135926;28;102956;-74
2022/10/11 06:26:12;;;;;;;18.30;16.53;;;;;;;20.92;46.63;95632.66;6129863;28;102785;-74
2022/10/11 06:29:15;;;;;;;17.60;16.00;;;;;;;20.93;46.68;95647.53;6130544;28;103267;-74
2022/10/11 06:32:18;;;;;;;19.10;17.20;;;;;;;20.93;46.46;95655.53;6135568;28;103117;-73
2022/10/11 06:35:22;;;;;;;17.77;16.07;;;;;;;20.93;46.40;95653.66;6135970;28;106011;-74
2022/10/11 06:38:26;;;;;;;17.30;15.80;;;;;;;20.93;46.54;95652.84;6124646;28;103086;-75
2022/10/11 06:41:30;;;;;;;17.83;16.20;;;;;;;20.92;46.46;95651.28;6135938;28;102828;-74
2022/10/11 06:44:33;;;;;;;17.20;15.70;;;;;;;20.94;46.27;95657.09;6135884;28;103230;-73
2022/10/11 06:47:36;;;;;;;17.67;16.07;;;;;;;;;;6135905;28;103410;-76
2022/10/11 06:50:39;;;;;;;16.97;15.50;;;;;;;20.93;46.38;95668.81;6126353;28;103381;-75
2022/10/11 06:54:04;;;;;;;17.63;16.03;;;;;;;20.92;46.58;95670.69;6135731;28;103180;-76
2022/10/11 06:57:06;;;;;;;18.60;16.90;;;;;;;;;;6135693;28;103071;-76
2022/10/11 07:00:11;;;;;;;17.83;16.00;;;;;;;20.95;46.54;95671.19;6131540;28;103339;-67
2022/10/11 07:03:14;;;;;;;18.17;16.43;;;;;;;20.93;46.66;95677.59;6130309;28;103728;-67
2022/10/11 07:06:18;;;;;;;17.77;16.07;;;;;;;;;;6134944;28;103429;-67
2022/10/11 07:09:22;;;;;;;17.80;16.13;;;;;;;20.93;46.31;95676.81;6134828;28;102951;-68
2022/10/11 07:12:25;;;;;;;16.43;14.93;;;;;;;20.91;46.28;95665.66;6124935;28;103419;-67
2022/10/11 07:15:28;;;;;;;16.70;15.10;;;;;;;20.94;45.89;95665.09;6134904;28;103206;-67
2022/10/11 07:18:31;;;;;;;17.27;15.77;;;;;;;;;;6135534;28;102952;-70
2022/10/11 07:21:35;;;;;;;16.47;15.07;;;;;;;20.94;46.36;95670.41;6135374;28;103048;-67
2022/10/11 07:24:40;;;;;;;16.73;15.27;;;;;;;20.92;46.08;95668.03;6127426;28;103684;-67
2022/10/11 07:27:43;;;;;;;16.47;14.93;;;;;;;20.93;46.13;95669.63;6139523;28;103590;-67
2022/10/11 07:30:46;;;;;;;16.70;15.20;;;;;;;20.93;46.29;95674.94;6139080;28;104201;-67
2022/10/11 07:33:49;;;;;;;18.13;16.33;;;;;;;20.93;46.29;95672.28;6138143;28;103265;-68
2022/10/11 07:36:52;;;;;;;17.13;15.60;;;;;;;20.94;46.39;95670.41;6132589;28;104250;-68
2022/10/11 07:39:56;;;;;;;18.57;16.80;;;;;;;20.94;46.48;95670.41;6139137;28;105795;-67
2022/10/11 07:42:59;;;;;;;18.57;16.83;;;;;;;20.92;46.27;95670.69;6139337;28;103407;-67
2022/10/11 07:46:03;;;;;;;18.40;16.70;;;;;;;20.92;46.41;95668.03;6128986;28;104424;-67
2022/10/11 07:49:07;;;;;;;19.00;17.30;;;;;;;20.93;46.08;95674.94;6138217;28;103464;-67
2022/10/11 07:52:10;;;;;;;19.00;17.23;;;;;;;20.93;46.20;95669.63;6138874;28;104944;-67
2022/10/11 07:55:14;;;;;;;19.17;17.37;;;;;;;20.96;46.18;95672.78;6138396;28;103052;-68
2022/10/11 07:58:17;;;;;;;19.27;17.47;;;;;;;20.96;46.24;95667.47;6127585;28;102987;-67
2022/10/11 08:01:21;;;;;;;18.30;16.70;;;;;;;20.96;46.10;95672.78;6138508;28;103204;-67
2022/10/11 08:04:24;;;;;;;19.40;17.47;;;;;;;20.95;45.88;95665.88;6139202;28;103039;-67
2022/10/11 08:07:28;;;;;;;19.17;17.27;;;;;;;20.97;46.27;95661.84;6137931;28;103296;-67
2022/10/11 08:10:39;;;;;;;19.30;17.60;;;;;;;20.96;45.97;95665.59;6127722;28;103050;-68
2022/10/11 08:13:42;;;;;;;18.60;16.97;;;;;;;20.97;46.16;95674.38;6138870;28;103290;-67
2022/10/11 08:16:45;;;;;;;18.87;16.97;;;;;;;20.99;45.82;95677.53;6138097;28;103066;-67
2022/10/11 08:19:48;;;;;;;19.23;17.50;;;;;;;20.97;46.22;95677.03;6133198;28;103060;-67
2022/10/11 08:22:51;;;;;;;18.77;17.00;;;;;;;20.97;46.24;95679.69;6133155;28;103857;-67
2022/10/11 08:25:57;;;;;;;19.37;17.67;;;;;;;20.99;46.25;95688.19;6138649;28;103101;-67
2022/10/11 08:29:02;;;;;;;18.23;16.57;;;;;;;20.99;46.06;95682.84;6138527;28;103011;-67
2022/10/11 08:32:05;;;;;;;19.57;17.77;;;;;;;20.99;45.89;95686.31;6128567;28;105541;-67
2022/10/11 08:35:08;;;;;;;18.27;16.47;;;;;;;21.01;45.84;95692.16;6137480;28;103124;-67
2022/10/11 08:38:12;;;;;;;20.13;18.20;;;;;;;21.03;45.84;95683.91;6138026;28;103185;-69
2022/10/11 08:41:36;;;;;;;20.80;18.67;;;;;;;21.04;45.74;95672.19;6138467;28;102821;-67
2022/10/11 08:44:42;;;;;;;19.80;18.10;;;;;;;21.08;45.73;95682.00;6127838;28;103163;-68
2022/10/11 08:48:13;;;;;;;19.73;17.93;;;;;;;21.07;46.24;95680.41;6138460;28;102699;-67
2022/10/11 08:51:21;;;;;;;20.17;18.37;;;;;;;21.10;46.29;95679.84;6137913;28;102738;-69
2022/10/11 08:54:37;;;;;;;20.97;19.17;;;;;;;21.10;46.30;95679.84;6128365;28;106237;-66
2022/10/11 08:57:48;;;;;;;21.80;19.70;;;;;;;21.09;45.77;95677.47;6138096;28;103053;-67
2022/10/11 09:00:54;;;;;;;22.27;20.27;;;;;;;21.10;46.26;95676.38;6138458;28;103452;-67
2022/10/11 09:03:58;;;;;;;21.00;19.13;;;;;;;21.10;46.11;95679.03;6138130;28;102985;-67
2022/10/11 09:07:07;;;;;;;22.20;20.20;;;;;;;21.10;46.19;95679.03;6127029;28;105330;-67
2022/10/11 09:10:32;;;;;;;20.67;18.87;;;;;;;21.11;45.88;95675.31;6137881;28;106265;-68
2022/10/11 09:13:55;;;;;;;23.40;21.30;;;;;;;21.12;46.18;95666.25;6137238;28;103389;-68
2022/10/11 09:17:07;;;;;;;20.73;18.90;;;;;;;21.12;46.02;95672.34;6127409;28;103223;-68
2022/10/11 09:20:24;;;;;;;20.50;18.70;;;;;;;21.10;46.28;95669.19;6136921;28;103169;-66
2022/10/11 09:23:46;;;;;;;20.53;18.63;;;;;;;21.12;45.99;95668.91;6136834;28;103758;-68
2022/10/11 09:26:55;;;;;;;20.43;18.63;;;;;;;21.13;46.00;95667.81;6136910;28;102999;-66
2022/10/11 09:30:04;;;;;;;19.93;18.20;;;;;;;21.13;46.05;95670.50;6125774;28;104076;-66
2022/10/11 09:33:15;;;;;;;19.67;17.87;;;;;;;21.12;45.93;95666.25;6137237;28;103192;-67
2022/10/11 09:36:25;;;;;;;20.63;18.83;;;;;;;21.13;45.77;95670.50;6137044;28;103291;-68
2022/10/11 09:39:31;;;;;;;21.30;19.30;;;;;;;21.13;45.73;95667.81;6127519;28;103545;-70
2022/10/11 09:42:34;;;;;;;19.97;18.10;;;;;;;21.16;46.00;95667.25;6136130;28;103100;-68
2022/10/11 09:45:43;;;;;;;19.83;18.03;;;;;;;21.17;45.87;95664.34;6135735;28;103165;-67
2022/10/11 09:48:53;;;;;;;21.00;19.07;;;;;;;21.18;45.52;95657.16;6136527;28;103388;-67
2022/10/11 09:51:59;;;;;;;19.80;18.00;;;;;;;21.16;45.49;95651.28;6125194;28;102798;-67
2022/10/11 09:55:03;;;;;;;20.13;18.37;;;;;;;21.19;45.55;95654.19;6136615;28;103196;-67
2022/10/11 09:58:29;;;;;;;21.90;19.90;;;;;;;21.19;45.71;95645.41;6135721;28;102983;-67
2022/10/11 10:01:34;;;;;;;21.50;19.60;;;;;;;21.23;45.45;95645.63;6132321;28;102765;-69
2022/10/11 10:04:55;;;;;;;19.70;17.90;;;;;;;21.23;45.47;95649.09;6130535;28;103156;-67
2022/10/11 10:08:01;;;;;;;20.23;18.53;;;;;;;21.22;45.54;95644.84;6135594;28;103185;-67
2022/10/11 10:11:09;;;;;;;20.30;18.50;;;;;;;21.23;45.67;95635.78;6136375;28;102755;-66
2022/10/11 10:14:22;;;;;;;20.80;19.03;;;;;;;21.20;45.87;95629.16;6126263;28;103392;-67
2022/10/11 10:17:27;;;;;;;21.20;19.20;;;;;;;21.23;45.79;95632.31;6136979;28;102715;-67
2022/10/11 10:20:33;;;;;;;20.33;18.43;;;;;;;21.23;45.50;95627.00;6135562;28;103399;-67
2022/10/11 10:23:37;;;;;;;21.00;19.00;;;;;;;21.24;46.08;95631.25;6136131;28;103169;-66
2022/10/11 10:26:40;;;;;;;20.70;18.90;;;;;;;21.23;46.01;95627.00;6125752;28;105727;-67
2022/10/11 10:29:44;;;;;;;21.40;19.30;;;;;;;21.23;45.39;95619.81;6135286;28;103365;-66
2022/10/11 10:32:55;;;;;;;20.50;18.70;;;;;;;21.24;45.85;95625.94;6135524;28;103065;-66
2022/10/11 10:36:05;;;;;;;20.67;18.77;;;;;;;21.25;45.58;95619.53;6130196;28;103076;-67
2022/10/11 10:39:22;;;;;;;20.37;18.60;;;;;;;21.26;45.49;95613.13;6131974;28;103362;-68
2022/10/11 10:42:25;;;;;;;20.30;18.60;;;;;;;21.27;45.76;95623.47;6135504;28;103170;-66
2022/10/11 10:45:38;;;;;;;21.17;19.27;;;;;;;21.29;45.63;95613.34;6135329;28;103004;-66
2022/10/11 10:48:49;;;;;;;21.10;19.20;;;;;;;21.29;45.43;95616.00;6124363;28;103238;-67
2022/10/11 10:52:46;;;;;;;21.33;19.30;;;;;;;21.32;45.26;95612.75;6134963;28;102992;-68
2022/10/11 10:55:55;;;;;;;20.60;18.87;;;;;;;21.34;45.66;95599.97;6135528;28;103219;-65
2022/10/11 10:59:14;;;;;;;21.57;19.63;;;;;;;21.33;45.71;95597.56;6124815;28;103026;-67
2022/10/11 11:02:21;;;;;;;20.43;18.53;;;;;;;21.33;45.20;95598.38;6135913;28;103087;-66
2022/10/11 11:05:51;;;;;;;20.40;18.47;;;;;;;21.34;45.65;95601.81;6134975;28;102916;-66
2022/10/11 11:09:10;;;;;;;21.90;19.90;;;;;;;21.34;45.37;95594.66;6135966;28;102659;-67
2022/10/11 11:12:38;;;;;;;19.80;18.00;;;;;;;21.34;45.40;95592.00;6124067;28;103405;-68
2022/10/11 11:15:47;;;;;;;20.80;19.00;;;;;;;21.34;45.64;95594.66;6135866;28;106007;-69
2022/10/11 11:18:58;;;;;;;21.60;19.60;;;;;;;21.35;45.18;95588.25;6135247;28;103423;-68
2022/10/11 11:22:09;;;;;;;20.97;18.97;;;;;;;21.35;45.59;95582.13;6124940;28;103586;-67
2022/10/11 11:25:24;;;;;;;21.37;19.47;;;;;;;21.37;45.21;95585.31;6135356;28;102929;-68
2022/10/11 11:28:45;;;;;;;20.10;18.33;;;;;;;21.35;45.25;95582.94;6135144;28;103079;-67
2022/10/11 11:32:08;;;;;;;21.53;19.47;;;;;;;21.45;45.05;95581.97;6135560;28;102721;-67
2022/10/11 11:35:20;;;;;;;20.30;18.50;;;;;;;21.50;45.66;95577.34;6124141;28;103186;-67
2022/10/11 11:38:34;;;;;;;20.00;18.30;;;;;;;21.55;45.97;95570.41;6135090;28;103350;-66
2022/10/11 11:41:40;;;;;;;19.77;18.10;;;;;;;21.57;45.78;95573.56;6134720;28;103268;-70
2022/10/11 11:44:47;;;;;;;21.27;19.30;;;;;;;21.56;45.84;95559.47;6125419;28;103967;-65
2022/10/11 11:47:54;;;;;;;18.60;17.00;;;;;;;21.58;45.79;95565.28;6135235;28;102699;-64
2022/10/11 11:51:05;;;;;;;20.57;18.67;;;;;;;21.59;45.77;95560.75;6134082;28;103342;-65
2022/10/11 11:54:23;;;;;;;20.00;18.20;;;;;;;21.58;46.38;95559.16;6134818;28;103076;-66
2022/10/11 11:57:39;;;;;;;19.37;17.73;;;;;;;21.55;46.33;95565.06;6124066;28;103324;-65
2022/10/11 12:00:51;;;;;;;20.03;18.40;;;;;;;21.49;46.09;95557.13;6134491;28;103154;-66
2022/10/11 12:03:57;;;;;;;20.20;18.30;;;;;;;21.42;46.26;95555.94;6133931;28;103333;-65
2022/10/11 12:07:06;;;;;;;20.17;18.17;;;;;;;21.43;46.40;95560.97;6127858;28;103937;-69
2022/10/11 12:10:29;;;;;;;19.30;17.60;;;;;;;21.41;46.18;95557.81;6136506;28;105471;-66
2022/10/11 12:13:35;;;;;;;18.90;17.20;;;;;;;21.40;45.91;95558.09;6137984;28;103543;-66
2022/10/11 12:17:05;;;;;;;19.33;17.63;;;;;;;21.40;45.75;95556.22;6138347;28;103003;-65
2022/10/11 12:20:16;;;;;;;19.40;17.70;;;;;;;21.35;45.92;95552.84;6127698;28;103320;-65
2022/10/11 12:23:47;;;;;;;19.30;17.60;;;;;;;21.36;46.16;95560.53;6138450;28;106551;-66
2022/10/11 12:26:54;;;;;;;20.33;18.53;;;;;;;21.38;46.11;95560.25;6138314;28;102796;-67
2022/10/11 12:29:57;;;;;;;17.40;15.90;;;;;;;21.38;46.20;95560.25;6127524;28;103210;-66
2022/10/11 12:33:06;;;;;;;18.77;17.07;;;;;;;21.35;45.81;95556.31;6138298;28;105535;-64
2022/10/11 12:36:34;;;;;;;19.07;17.40;;;;;;;21.33;46.25;95554.97;6137932;28;103245;-66
2022/10/11 12:39:50;;;;;;;18.50;16.90;;;;;;;21.35;46.07;95550.97;6137986;28;103033;-66
2022/10/11 12:43:22;;;;;;;18.40;16.70;;;;;;;21.33;46.10;95537.13;6126015;28;103367;-67
2022/10/11 12:47:24;;;;;;;17.70;16.10;;;;;;;21.32;45.79;95538.22;6137826;28;102998;-65
2022/10/11 12:50:33;;;;;;;19.20;17.47;;;;;;;21.34;45.55;95535.28;6137553;28;102827;-67
2022/10/11 12:54:03;;;;;;;18.37;16.63;;;;;;;21.32;45.91;95540.88;6128453;28;105933;-66
2022/10/11 12:57:59;;;;;;;18.63;17.03;;;;;;;21.30;45.96;95535.06;6137333;28;102875;-66
2022/10/11 13:01:20;;;;;;;18.23;16.63;;;;;;;21.31;45.91;95535.84;6137062;28;103028;-66
2022/10/11 13:04:28;;;;;;;16.80;15.30;;;;;;;21.29;45.73;95538.81;6126615;28;103252;-65
2022/10/11 13:07:31;;;;;;;17.47;15.97;;;;;;;21.29;45.81;95533.47;6137085;28;103281;-66
2022/10/11 13:10:42;;;;;;;17.63;16.03;;;;;;;21.29;45.51;95536.13;6136906;28;103482;-65
2022/10/11 13:13:50;;;;;;;17.77;16.27;;;;;;;21.28;45.89;95545.22;6137777;28;103221;-65
2022/10/11 13:17:04;;;;;;;17.60;16.00;;;;;;;21.25;45.77;95537.81;6126545;28;103931;-65
2022/10/11 13:20:15;;;;;;;17.57;15.97;;;;;;;21.25;45.94;95545.78;6136610;28;103079;-66
2022/10/11 13:23:22;;;;;;;16.20;14.80;;;;;;;21.27;45.61;95537.50;6136917;28;103024;-65
2022/10/11 13:26:27;;;;;;;15.80;14.50;;;;;;;21.26;45.63;95544.72;6132201;28;103260;-66
2022/10/11 13:29:33;;;;;;;16.40;15.00;;;;;;;21.20;45.59;95529.91;6133597;28;103181;-65
2022/10/11 13:32:38;;;;;;;17.60;16.00;;;;;;;21.25;45.63;95540.47;6136338;28;103075;-65
2022/10/11 13:35:41;;;;;;;16.90;15.40;;;;;;;21.25;45.22;95543.13;6137201;28;103332;-65
2022/10/11 13:38:52;;;;;;;16.50;15.00;;;;;;;21.25;45.23;95537.81;6126311;28;103615;-65
2022/10/11 13:41:56;;;;;;;15.70;14.40;;;;;;;21.24;45.27;95538.09;6136928;28;102845;-65
2022/10/11 13:45:00;;;;;;;16.90;15.40;;;;;;;21.23;45.55;95539.16;6137572;28;103562;-65
2022/10/11 13:48:13;;;;;;;16.83;15.33;;;;;;;21.23;45.50;95539.16;6136941;28;103306;-64
2022/10/11 13:51:28;;;;;;;16.27;14.77;;;;;;;21.23;45.78;95542.63;6125344;28;103213;-66
2022/10/11 13:54:57;;;;;;;16.43;14.93;;;;;;;21.23;45.45;95539.97;6136545;28;105825;-66
2022/10/11 13:58:03;;;;;;;16.43;15.03;;;;;;;21.23;45.52;95537.31;6136479;28;103946;-66
2022/10/11 14:01:16;;;;;;;15.33;14.03;;;;;;;21.23;45.45;95533.84;6126298;28;103349;-66
2022/10/11 14:04:21;;;;;;;15.03;13.70;;;;;;;21.23;45.57;95531.97;6135341;28;103613;-66
2022/10/11 14:07:36;;;;;;;15.60;14.30;;;;;;;21.23;45.23;95537.31;6136172;28;103355;-66
2022/10/11 14:10:39;;;;;;;15.50;14.20;;;;;;;21.23;45.38;95541.84;6135995;28;103291;-66
2022/10/11 14:13:44;;;;;;;16.13;14.80;;;;;;;21.22;45.31;95541.03;6125526;28;104344;-67
2022/10/11 14:16:55;;;;;;;16.10;14.60;;;;;;;21.20;45.27;95532.56;6136253;28;103737;-65
2022/10/11 14:20:14;;;;;;;15.70;14.33;;;;;;;21.20;45.33;95532.56;6136031;28;103316;-65